createdAt,value
2018-06-03T00:00:24.797Z,99.99
2018-06-03T00:01:24.788Z,99.99
2018-06-03T00:02:24.801Z,99.99
2018-06-03T00:03:24.751Z,99.99
2018-06-03T00:04:24.747Z,99.99
2018-06-03T00:05:24.713Z,99.99
2018-06-03T00:06:24.696Z,99.99
2018-06-03T00:07:24.680Z,99.99
2018-06-03T00:08:24.669Z,99.99
2018-06-03T00:09:24.655Z,99.99
2018-06-03T00:10:24.638Z,99.99
2018-06-03T00:11:24.620Z,99.99
2018-06-03T00:12:24.608Z,99.99
2018-06-03T00:13:24.605Z,99.99
2018-06-03T00:14:24.571Z,99.99
2018-06-03T00:15:24.556Z,99.99
2018-06-03T00:16:24.535Z,99.99
2018-06-03T00:17:24.523Z,99.99
2018-06-03T00:18:24.510Z,99.99
2018-06-03T00:19:24.501Z,99.99
2018-06-03T00:20:24.472Z,99.99
2018-06-03T00:21:24.497Z,99.99
2018-06-03T00:22:24.446Z,99.99
2018-06-03T00:23:24.435Z,99.99
2018-06-03T00:24:24.412Z,99.99
2018-06-03T00:25:24.392Z,99.99
2018-06-03T00:26:24.372Z,99.99
2018-06-03T00:27:24.371Z,99.99
2018-06-03T00:28:24.345Z,99.99
2018-06-03T00:29:24.340Z,99.99
2018-06-03T00:30:24.320Z,99.99
2018-06-03T00:31:24.300Z,99.99
2018-06-03T00:32:24.276Z,99.99
2018-06-03T00:33:24.259Z,99.99
2018-06-03T00:34:24.252Z,99.99
2018-06-03T00:35:24.232Z,99.99
2018-06-03T00:36:24.218Z,99.99
2018-06-03T00:37:24.241Z,99.99
2018-06-03T00:38:24.176Z,99.99
2018-06-03T00:39:24.168Z,99.99
2018-06-03T00:40:24.191Z,99.99
2018-06-03T00:41:24.128Z,99.99
2018-06-03T00:42:24.118Z,99.99
2018-06-03T00:43:24.092Z,99.99
2018-06-03T00:44:24.087Z,99.99
2018-06-03T00:45:24.068Z,99.99
2018-06-03T00:46:24.049Z,99.99
2018-06-03T00:47:24.091Z,99.99
2018-06-03T00:48:24.033Z,99.99
2018-06-03T00:49:23.999Z,99.99
2018-06-03T00:50:23.983Z,99.99
2018-06-03T00:51:23.975Z,99.99
2018-06-03T00:52:23.945Z,99.99
2018-06-03T00:53:23.939Z,99.99
2018-06-03T00:54:23.913Z,99.99
2018-06-03T00:55:23.895Z,99.99
2018-06-03T00:56:23.881Z,99.99
2018-06-03T00:57:23.891Z,99.99
2018-06-03T00:58:23.851Z,99.99
2018-06-03T00:59:23.833Z,99.99
2018-06-03T01:00:23.815Z,99.99
2018-06-03T01:01:23.793Z,99.99
2018-06-03T01:02:23.776Z,99.99
2018-06-03T01:03:23.769Z,99.99
2018-06-03T01:04:23.743Z,99.99
2018-06-03T01:05:23.730Z,99.99
2018-06-03T01:06:23.728Z,99.99
2018-06-03T01:07:23.705Z,99.99
2018-06-03T01:08:23.678Z,99.99
2018-06-03T01:09:23.662Z,99.99
2018-06-03T01:10:23.651Z,99.99
2018-06-03T01:11:23.628Z,99.99
2018-06-03T01:12:23.650Z,99.99
2018-06-03T01:13:23.605Z,99.99
2018-06-03T01:14:23.598Z,99.99
2018-06-03T01:15:23.577Z,99.99
2018-06-03T01:16:23.559Z,99.99
2018-06-03T01:17:23.529Z,99.99
2018-06-03T01:18:23.527Z,99.99
2018-06-03T01:19:23.494Z,99.99
2018-06-03T01:20:23.480Z,99.99
2018-06-03T01:21:23.474Z,99.99
2018-06-03T01:22:23.445Z,99.99
2018-06-03T01:23:23.432Z,99.99
2018-06-03T01:24:23.412Z,99.99
2018-06-03T01:25:23.394Z,99.99
2018-06-03T01:26:23.379Z,99.99
2018-06-03T01:27:23.367Z,99.99
2018-06-03T01:28:23.343Z,99.99
2018-06-03T01:29:23.331Z,99.99
2018-06-03T01:30:23.306Z,99.99
2018-06-03T01:31:23.309Z,99.99
2018-06-03T01:32:23.276Z,99.99
2018-06-03T01:33:23.267Z,99.99
2018-06-03T01:34:23.247Z,99.99
2018-06-03T01:35:23.238Z,99.99
2018-06-03T01:36:23.213Z,99.99
2018-06-03T01:37:23.290Z,99.99
2018-06-03T01:38:23.191Z,99.99
2018-06-03T01:39:23.170Z,99.99
2018-06-03T01:40:23.138Z,99.99
2018-06-03T01:41:23.121Z,99.99
2018-06-03T01:42:23.131Z,99.99
2018-06-03T01:43:23.111Z,99.99
2018-06-03T01:44:23.072Z,99.99
2018-06-03T01:45:23.056Z,99.99
2018-06-03T01:46:23.040Z,99.99
2018-06-03T01:47:23.026Z,99.99
2018-06-03T01:48:23.006Z,99.99
2018-06-03T01:49:22.997Z,99.99
2018-06-03T01:50:22.975Z,99.99
2018-06-03T01:51:22.954Z,99.99
2018-06-03T01:52:22.939Z,99.99
2018-06-03T01:53:22.939Z,99.99
2018-06-03T01:54:22.905Z,99.99
2018-06-03T01:55:22.889Z,99.99
2018-06-03T01:56:22.875Z,99.99
2018-06-03T01:57:22.859Z,99.99
2018-06-03T01:58:22.841Z,99.99
2018-06-03T01:59:22.819Z,99.99
2018-06-03T02:00:22.806Z,99.99
2018-06-03T02:01:22.789Z,99.99
2018-06-03T02:02:22.772Z,99.99
2018-06-03T02:03:22.752Z,99.99
2018-06-03T02:04:22.737Z,99.99
2018-06-03T02:05:22.728Z,99.99
2018-06-03T02:06:22.707Z,99.99
2018-06-03T02:07:22.693Z,99.99
2018-06-03T02:08:22.672Z,99.99
2018-06-03T02:09:22.652Z,99.99
2018-06-03T02:10:22.633Z,99.99
2018-06-03T02:11:22.622Z,99.99
2018-06-03T02:12:22.601Z,99.99
2018-06-03T02:13:22.586Z,99.99
2018-06-03T02:14:22.567Z,99.99
2018-06-03T02:15:22.551Z,99.99
2018-06-03T02:16:22.536Z,99.99
2018-06-03T02:17:22.516Z,99.99
2018-06-03T02:18:22.501Z,99.99
2018-06-03T02:19:22.481Z,99.99
2018-06-03T02:20:22.466Z,99.99
2018-06-03T02:21:22.450Z,99.99
2018-06-03T02:22:22.432Z,99.99
2018-06-03T02:23:22.416Z,99.99
2018-06-03T02:24:22.391Z,99.99
2018-06-03T02:25:22.372Z,99.99
2018-06-03T02:26:22.365Z,99.99
2018-06-03T02:27:22.342Z,99.99
2018-06-03T02:28:22.338Z,99.99
2018-06-03T02:29:22.306Z,99.99
2018-06-03T02:30:22.291Z,99.99
2018-06-03T02:31:22.291Z,99.99
2018-06-03T02:32:22.260Z,99.99
2018-06-03T02:33:22.241Z,99.99
2018-06-03T02:34:22.226Z,99.99
2018-06-03T02:35:22.213Z,99.99
2018-06-03T02:36:22.188Z,99.99
2018-06-03T02:37:22.182Z,99.99
2018-06-03T02:38:22.164Z,99.99
2018-06-03T02:39:22.145Z,99.99
2018-06-03T02:40:22.121Z,99.99
2018-06-03T02:41:22.120Z,99.99
2018-06-03T02:42:22.137Z,99.99
2018-06-03T02:43:22.079Z,99.99
2018-06-03T02:44:22.055Z,99.99
2018-06-03T02:45:22.043Z,99.99
2018-06-03T02:46:22.026Z,99.99
2018-06-03T02:47:22.006Z,99.99
2018-06-03T02:48:21.982Z,99.99
2018-06-03T02:49:21.985Z,99.99
2018-06-03T02:50:21.951Z,99.99
2018-06-03T02:51:21.946Z,99.99
2018-06-03T02:52:21.921Z,99.99
2018-06-03T02:53:21.898Z,99.99
2018-06-03T02:54:21.887Z,99.99
2018-06-03T02:55:21.872Z,99.99
2018-06-03T02:56:21.854Z,99.99
2018-06-03T02:57:21.838Z,99.99
2018-06-03T02:58:21.830Z,99.99
2018-06-03T02:59:21.800Z,99.99
2018-06-03T03:00:21.785Z,99.99
2018-06-03T03:01:21.772Z,99.99
2018-06-03T03:02:21.753Z,99.99
2018-06-03T03:03:21.733Z,99.99
2018-06-03T03:04:21.721Z,99.99
2018-06-03T03:05:21.702Z,99.99
2018-06-03T03:06:21.684Z,99.99
2018-06-03T03:07:21.674Z,99.99
2018-06-03T03:08:21.653Z,99.99
2018-06-03T03:09:21.633Z,99.99
2018-06-03T03:10:21.616Z,99.99
2018-06-03T03:11:21.598Z,99.99
2018-06-03T03:12:21.584Z,99.99
2018-06-03T03:13:21.561Z,99.99
2018-06-03T03:14:21.551Z,99.99
2018-06-03T03:15:21.535Z,99.99
2018-06-03T03:16:21.517Z,99.99
2018-06-03T03:17:21.502Z,99.99
2018-06-03T03:18:21.482Z,99.99
2018-06-03T03:19:21.469Z,99.99
2018-06-03T03:20:21.452Z,99.99
2018-06-03T03:21:21.433Z,99.99
2018-06-03T03:22:21.418Z,99.99
2018-06-03T03:23:21.402Z,99.99
2018-06-03T03:24:21.380Z,99.99
2018-06-03T03:25:21.380Z,99.99
2018-06-03T03:26:21.347Z,99.99
2018-06-03T03:27:21.330Z,99.99
2018-06-03T03:28:21.321Z,99.99
2018-06-03T03:29:21.296Z,99.99
2018-06-03T03:30:21.281Z,99.99
2018-06-03T03:31:21.264Z,99.99
2018-06-03T03:32:21.251Z,99.99
2018-06-03T03:33:21.234Z,99.99
2018-06-03T03:34:21.215Z,99.99
2018-06-03T03:35:21.196Z,99.99
2018-06-03T03:36:21.179Z,99.99
2018-06-03T03:37:21.163Z,99.99
2018-06-03T03:38:21.149Z,99.99
2018-06-03T03:39:21.130Z,99.99
2018-06-03T03:40:21.113Z,99.99
2018-06-03T03:41:21.101Z,99.99
2018-06-03T03:42:21.081Z,99.99
2018-06-03T03:43:21.066Z,99.99
2018-06-03T03:44:21.047Z,99.99
2018-06-03T03:45:21.030Z,99.99
2018-06-03T03:46:21.017Z,99.99
2018-06-03T03:47:20.999Z,99.99
2018-06-03T03:48:20.980Z,99.99
2018-06-03T03:49:20.964Z,99.99
2018-06-03T03:50:20.955Z,99.99
2018-06-03T03:51:20.931Z,99.99
2018-06-03T03:52:20.914Z,99.99
2018-06-03T03:53:20.900Z,99.99
2018-06-03T03:54:20.896Z,99.99
2018-06-03T03:55:20.872Z,99.99
2018-06-03T03:56:20.853Z,99.99
2018-06-03T03:57:20.838Z,99.99
2018-06-03T03:58:20.822Z,99.99
2018-06-03T03:59:20.792Z,99.99
2018-06-03T04:00:20.784Z,99.99
2018-06-03T04:01:20.765Z,99.99
2018-06-03T04:02:20.749Z,99.99
2018-06-03T04:03:20.733Z,99.99
2018-06-03T04:04:20.718Z,99.99
2018-06-03T04:05:20.700Z,99.99
2018-06-03T04:06:20.693Z,99.99
2018-06-03T04:07:20.666Z,99.99
2018-06-03T04:08:20.661Z,99.99
2018-06-03T04:09:20.634Z,99.99
2018-06-03T04:10:20.620Z,99.99
2018-06-03T04:11:20.602Z,99.99
2018-06-03T04:12:20.587Z,99.99
2018-06-03T04:13:20.570Z,99.99
2018-06-03T04:14:20.552Z,99.99
2018-06-03T04:15:20.537Z,99.99
2018-06-03T04:16:20.515Z,99.99
2018-06-03T04:17:20.510Z,99.99
2018-06-03T04:18:20.491Z,99.99
2018-06-03T04:19:20.476Z,99.99
2018-06-03T04:20:20.457Z,99.99
2018-06-03T04:21:20.439Z,99.99
2018-06-03T04:22:20.422Z,99.99
2018-06-03T04:23:20.405Z,99.99
2018-06-03T04:24:20.389Z,99.99
2018-06-03T04:25:20.374Z,99.99
2018-06-03T04:26:20.356Z,99.99
2018-06-03T04:27:20.341Z,99.99
2018-06-03T04:28:20.326Z,99.99
2018-06-03T04:29:20.309Z,99.99
2018-06-03T04:30:20.293Z,99.99
2018-06-03T04:31:20.274Z,99.99
2018-06-03T04:32:20.260Z,99.99
2018-06-03T04:33:20.247Z,99.99
2018-06-03T04:34:20.229Z,99.99
2018-06-03T04:35:20.209Z,99.99
2018-06-03T04:36:20.196Z,99.99
2018-06-03T04:37:20.184Z,99.99
2018-06-03T04:38:20.162Z,99.99
2018-06-03T04:39:20.149Z,99.99
2018-06-03T04:40:20.126Z,99.99
2018-06-03T04:41:20.156Z,99.99
2018-06-03T04:42:20.098Z,99.99
2018-06-03T04:43:20.089Z,99.99
2018-06-03T04:44:20.068Z,99.99
2018-06-03T04:45:20.052Z,99.99
2018-06-03T04:46:20.036Z,99.99
2018-06-03T04:47:20.018Z,99.99
2018-06-03T04:48:20.002Z,99.99
2018-06-03T04:49:19.988Z,99.99
2018-06-03T04:50:19.975Z,99.99
2018-06-03T04:51:19.957Z,99.99
2018-06-03T04:52:19.938Z,99.99
2018-06-03T04:53:19.922Z,99.99
2018-06-03T04:54:19.906Z,99.99
2018-06-03T04:55:19.891Z,99.99
2018-06-03T04:56:19.874Z,99.99
2018-06-03T04:57:19.859Z,99.99
2018-06-03T04:58:19.843Z,99.99
2018-06-03T04:59:19.828Z,99.99
2018-06-03T05:00:19.812Z,99.99
2018-06-03T05:01:19.793Z,99.99
2018-06-03T05:02:19.778Z,99.99
2018-06-03T05:03:19.765Z,99.99
2018-06-03T05:04:19.748Z,99.99
2018-06-03T05:05:19.731Z,99.99
2018-06-03T05:06:19.714Z,99.99
2018-06-03T05:07:19.698Z,99.99
2018-06-03T05:08:19.684Z,99.99
2018-06-03T05:09:19.668Z,99.99
2018-06-03T05:10:19.652Z,99.99
2018-06-03T05:11:19.637Z,99.99
2018-06-03T05:12:19.620Z,99.99
2018-06-03T05:13:19.604Z,99.99
2018-06-03T05:14:19.590Z,99.99
2018-06-03T05:15:19.574Z,99.99
2018-06-03T05:16:19.557Z,99.99
2018-06-03T05:17:19.539Z,99.99
2018-06-03T05:18:19.529Z,99.99
2018-06-03T05:19:19.510Z,99.99
2018-06-03T05:20:19.496Z,99.99
2018-06-03T05:21:19.479Z,99.99
2018-06-03T05:22:19.462Z,99.99
2018-06-03T05:23:19.446Z,99.99
2018-06-03T05:24:19.430Z,99.99
2018-06-03T05:25:19.417Z,99.99
2018-06-03T05:26:19.400Z,99.99
2018-06-03T05:27:19.386Z,99.99
2018-06-03T05:28:19.370Z,99.99
2018-06-03T05:29:19.354Z,99.99
2018-06-03T05:30:19.339Z,99.99
2018-06-03T05:31:19.323Z,99.99
2018-06-03T05:32:19.307Z,99.99
2018-06-03T05:33:19.294Z,99.99
2018-06-03T05:34:19.273Z,99.99
2018-06-03T05:35:19.253Z,99.99
2018-06-03T05:36:19.242Z,99.99
2018-06-03T05:37:19.229Z,99.99
2018-06-03T05:38:19.212Z,99.99
2018-06-03T05:39:19.208Z,99.99
2018-06-03T05:40:19.183Z,99.99
2018-06-03T05:41:19.169Z,99.99
2018-06-03T05:42:19.153Z,99.99
2018-06-03T05:43:19.141Z,99.99
2018-06-03T05:44:19.122Z,99.99
2018-06-03T05:45:19.108Z,99.99
2018-06-03T05:46:19.093Z,99.99
2018-06-03T05:47:19.079Z,99.99
2018-06-03T05:48:19.063Z,99.99
2018-06-03T05:49:19.048Z,99.99
2018-06-03T05:50:19.031Z,99.99
2018-06-03T05:51:19.015Z,99.99
2018-06-03T05:52:19.004Z,99.99
2018-06-03T05:53:18.985Z,99.99
2018-06-03T05:54:18.976Z,99.99
2018-06-03T05:55:18.954Z,99.99
2018-06-03T05:56:18.945Z,99.99
2018-06-03T05:57:18.937Z,99.99
2018-06-03T05:58:18.910Z,99.99
2018-06-03T05:59:18.900Z,99.99
2018-06-03T06:00:18.884Z,99.99
2018-06-03T06:01:18.875Z,99.99
2018-06-03T06:02:18.850Z,99.99
2018-06-03T06:03:18.841Z,99.99
2018-06-03T06:04:18.825Z,99.99
2018-06-03T06:05:18.812Z,99.99
2018-06-03T06:06:18.793Z,99.99
2018-06-03T06:07:18.777Z,99.99
2018-06-03T06:08:18.775Z,99.99
2018-06-03T06:09:18.755Z,99.99
2018-06-03T06:10:18.736Z,99.99
2018-06-03T06:11:18.729Z,99.99
2018-06-03T06:12:18.704Z,99.99
2018-06-03T06:13:18.691Z,99.99
2018-06-03T06:14:18.684Z,99.99
2018-06-03T06:15:18.670Z,99.99
2018-06-03T06:16:18.653Z,99.99
2018-06-03T06:17:18.642Z,99.99
2018-06-03T06:18:18.625Z,99.99
2018-06-03T06:19:18.613Z,99.99
2018-06-03T06:20:18.597Z,99.99
2018-06-03T06:21:18.588Z,99.99
2018-06-03T06:22:18.572Z,99.99
2018-06-03T06:23:18.555Z,99.99
2018-06-03T06:24:18.543Z,99.99
2018-06-03T06:25:18.533Z,99.99
2018-06-03T06:26:18.514Z,99.99
2018-06-03T06:27:18.504Z,99.99
2018-06-03T06:28:18.485Z,99.99
2018-06-03T06:29:18.470Z,99.99
2018-06-03T06:30:18.455Z,99.99
2018-06-03T06:31:18.441Z,99.99
2018-06-03T06:32:18.427Z,99.99
2018-06-03T06:33:18.415Z,99.99
2018-06-03T06:34:18.404Z,99.99
2018-06-03T06:35:18.391Z,99.99
2018-06-03T06:36:18.376Z,99.99
2018-06-03T06:37:18.366Z,99.99
2018-06-03T06:38:18.354Z,99.99
2018-06-03T06:39:18.334Z,99.99
2018-06-03T06:40:18.322Z,99.99
2018-06-03T06:41:18.310Z,99.99
2018-06-03T06:42:18.294Z,99.99
2018-06-03T06:43:18.282Z,99.99
2018-06-03T06:44:18.269Z,99.99
2018-06-03T06:45:18.257Z,99.99
2018-06-03T06:46:18.242Z,99.99
2018-06-03T06:47:18.230Z,99.99
2018-06-03T06:48:18.218Z,99.99
2018-06-03T06:49:18.206Z,99.99
2018-06-03T06:50:18.191Z,99.99
2018-06-03T06:51:18.180Z,99.99
2018-06-03T06:52:18.166Z,99.99
2018-06-03T06:53:18.154Z,99.99
2018-06-03T06:54:18.141Z,99.99
2018-06-03T06:55:18.129Z,99.99
2018-06-03T06:56:18.117Z,99.99
2018-06-03T06:57:18.125Z,99.99
2018-06-03T06:58:18.091Z,99.99
2018-06-03T06:59:18.078Z,99.99
2018-06-03T07:00:18.108Z,99.99
2018-06-03T07:01:18.054Z,99.99
2018-06-03T07:02:18.040Z,99.99
2018-06-03T07:03:18.031Z,99.99
2018-06-03T07:04:18.014Z,99.99
2018-06-03T07:05:17.999Z,99.99
2018-06-03T07:06:17.994Z,98.68
2018-06-03T07:07:17.978Z,98.00
2018-06-03T07:08:17.967Z,97.62
2018-06-03T07:09:17.955Z,98.05
2018-06-03T07:10:17.942Z,99.40
2018-06-03T07:11:17.930Z,99.01
2018-06-03T07:12:17.917Z,99.30
2018-06-03T07:13:17.905Z,99.40
2018-06-03T07:14:17.889Z,99.99
2018-06-03T07:15:17.880Z,99.99
2018-06-03T07:16:17.867Z,99.99
2018-06-03T07:17:17.857Z,99.99
2018-06-03T07:18:17.843Z,99.99
2018-06-03T07:19:17.830Z,99.99
2018-06-03T07:20:17.818Z,98.77
2018-06-03T07:21:17.809Z,98.77
2018-06-03T07:22:17.795Z,98.49
2018-06-03T07:23:17.835Z,99.06
2018-06-03T07:24:17.770Z,98.34
2018-06-03T07:25:17.759Z,98.72
2018-06-03T07:26:17.748Z,99.99
2018-06-03T07:27:17.734Z,98.87
2018-06-03T07:28:17.721Z,99.26
2018-06-03T07:29:17.710Z,99.99
2018-06-03T07:30:17.697Z,99.06
2018-06-03T07:31:17.685Z,99.99
2018-06-03T07:32:17.673Z,99.26
2018-06-03T07:33:17.662Z,99.26
2018-06-03T07:34:17.648Z,99.35
2018-06-03T07:35:17.638Z,99.74
2018-06-03T07:36:17.629Z,98.87
2018-06-03T07:37:17.617Z,97.62
2018-06-03T07:38:17.664Z,98.72
2018-06-03T07:39:17.592Z,98.72
2018-06-03T07:40:17.577Z,97.28
2018-06-03T07:41:17.567Z,97.52
2018-06-03T07:42:17.552Z,99.50
2018-06-03T07:43:17.543Z,99.35
2018-06-03T07:44:17.529Z,98.10
2018-06-03T07:45:17.517Z,97.52
2018-06-03T07:46:17.504Z,98.58
2018-06-03T07:47:17.495Z,96.66
2018-06-03T07:48:17.483Z,97.14
2018-06-03T07:49:17.472Z,97.47
2018-06-03T07:50:17.483Z,97.38
2018-06-03T07:51:17.447Z,98.24
2018-06-03T07:52:17.437Z,98.15
2018-06-03T07:53:17.423Z,99.50
2018-06-03T07:54:17.412Z,99.11
2018-06-03T07:55:17.398Z,99.11
2018-06-03T07:56:17.385Z,98.05
2018-06-03T07:57:17.376Z,97.86
2018-06-03T07:58:17.359Z,98.72
2018-06-03T07:59:17.347Z,99.50
2018-06-03T08:00:17.336Z,99.50
2018-06-03T08:01:17.323Z,99.99
2018-06-03T08:02:17.309Z,97.86
2018-06-03T08:03:17.299Z,98.24
2018-06-03T08:04:17.287Z,96.42
2018-06-03T08:05:17.277Z,95.55
2018-06-03T08:06:17.262Z,96.12
2018-06-03T08:07:17.252Z,97.86
2018-06-03T08:08:17.243Z,98.54
2018-06-03T08:09:17.228Z,97.47
2018-06-03T08:10:17.215Z,98.54
2018-06-03T08:11:17.204Z,98.44
2018-06-03T08:12:17.196Z,97.67
2018-06-03T08:13:17.182Z,97.67
2018-06-03T08:14:17.168Z,97.76
2018-06-03T08:15:17.161Z,99.02
2018-06-03T08:16:17.145Z,98.44
2018-06-03T08:17:17.133Z,98.82
2018-06-03T08:18:17.121Z,97.24
2018-06-03T08:19:17.110Z,97.09
2018-06-03T08:20:17.099Z,96.56
2018-06-03T08:21:17.086Z,95.59
2018-06-03T08:22:17.074Z,93.48
2018-06-03T08:23:17.064Z,94.24
2018-06-03T08:24:17.054Z,94.44
2018-06-03T08:25:17.045Z,94.63
2018-06-03T08:26:17.030Z,96.46
2018-06-03T08:27:17.018Z,94.06
2018-06-03T08:28:17.008Z,95.98
2018-06-03T08:29:16.996Z,95.50
2018-06-03T08:30:16.984Z,94.73
2018-06-03T08:31:16.971Z,95.79
2018-06-03T08:32:16.961Z,94.44
2018-06-03T08:33:16.950Z,92.61
2018-06-03T08:34:16.937Z,92.32
2018-06-03T08:35:16.926Z,93.52
2018-06-03T08:36:16.916Z,94.20
2018-06-03T08:37:16.903Z,92.94
2018-06-03T08:38:16.892Z,93.13
2018-06-03T08:39:16.901Z,95.02
2018-06-03T08:40:16.870Z,95.50
2018-06-03T08:41:16.859Z,94.34
2018-06-03T08:42:16.846Z,94.24
2018-06-03T08:43:16.836Z,94.24
2018-06-03T08:44:16.827Z,94.92
2018-06-03T08:45:16.816Z,95.11
2018-06-03T08:46:16.804Z,96.17
2018-06-03T08:47:16.792Z,96.17
2018-06-03T08:48:16.779Z,94.63
2018-06-03T08:49:16.768Z,94.24
2018-06-03T08:50:16.764Z,94.44
2018-06-03T08:51:16.746Z,95.40
2018-06-03T08:52:16.734Z,94.34
2018-06-03T08:53:16.728Z,94.15
2018-06-03T08:54:16.713Z,93.38
2018-06-03T08:55:16.700Z,92.61
2018-06-03T08:56:16.689Z,94.24
2018-06-03T08:57:16.678Z,94.92
2018-06-03T08:58:16.668Z,95.98
2018-06-03T08:59:16.655Z,95.94
2018-06-03T09:00:16.645Z,95.36
2018-06-03T09:01:16.633Z,95.94
2018-06-03T09:02:16.621Z,95.55
2018-06-03T09:03:16.610Z,96.51
2018-06-03T09:04:16.598Z,97.62
2018-06-03T09:05:16.588Z,97.38
2018-06-03T09:06:16.577Z,97.33
2018-06-03T09:07:16.563Z,98.49
2018-06-03T09:08:16.552Z,99.44
2018-06-03T09:09:16.540Z,98.87
2018-06-03T09:10:16.528Z,97.62
2018-06-03T09:11:16.509Z,96.56
2018-06-03T09:12:16.504Z,97.04
2018-06-03T09:13:16.491Z,97.14
2018-06-03T09:14:16.479Z,97.04
2018-06-03T09:15:16.467Z,96.75
2018-06-03T09:16:16.455Z,98.10
2018-06-03T09:17:16.448Z,99.26
2018-06-03T09:18:16.431Z,99.59
2018-06-03T09:19:16.418Z,99.88
2018-06-03T09:20:16.404Z,99.99
2018-06-03T09:21:16.393Z,99.21
2018-06-03T09:22:16.382Z,99.88
2018-06-03T09:23:16.368Z,99.21
2018-06-03T09:24:16.359Z,98.87
2018-06-03T09:25:16.345Z,98.92
2018-06-03T09:26:16.331Z,99.21
2018-06-03T09:27:16.319Z,99.01
2018-06-03T09:28:16.305Z,98.72
2018-06-03T09:29:16.296Z,99.01
2018-06-03T09:30:16.279Z,98.05
2018-06-03T09:31:16.268Z,97.52
2018-06-03T09:32:16.254Z,98.58
2018-06-03T09:33:16.242Z,97.33
2018-06-03T09:34:16.230Z,96.99
2018-06-03T09:35:16.222Z,96.56
2018-06-03T09:36:16.203Z,96.94
2018-06-03T09:37:16.190Z,98.10
2018-06-03T09:38:16.177Z,98.10
2018-06-03T09:39:16.168Z,98.87
2018-06-03T09:40:16.152Z,96.94
2018-06-03T09:41:16.140Z,96.46
2018-06-03T09:42:16.125Z,95.50
2018-06-03T09:43:16.114Z,95.79
2018-06-03T09:44:16.137Z,95.84
2018-06-03T09:45:16.089Z,95.07
2018-06-03T09:46:16.074Z,94.10
2018-06-03T09:47:16.064Z,93.91
2018-06-03T09:48:16.051Z,92.85
2018-06-03T09:49:16.037Z,93.72
2018-06-03T09:50:16.024Z,95.07
2018-06-03T09:51:16.012Z,95.55
2018-06-03T09:52:15.999Z,95.36
2018-06-03T09:53:16.017Z,95.16
2018-06-03T09:54:15.975Z,93.52
2018-06-03T09:55:15.964Z,94.06
2018-06-03T09:56:15.950Z,95.07
2018-06-03T09:57:15.937Z,93.86
2018-06-03T09:58:15.925Z,93.66
2018-06-03T09:59:15.913Z,95.02
2018-06-03T10:00:15.958Z,93.38
2018-06-03T10:01:15.888Z,92.32
2018-06-03T10:02:15.875Z,92.71
2018-06-03T10:03:15.863Z,92.32
2018-06-03T10:04:15.850Z,92.36
2018-06-03T10:05:15.836Z,91.98
2018-06-03T10:06:15.825Z,92.17
2018-06-03T10:07:15.815Z,91.02
2018-06-03T10:08:15.808Z,90.92
2018-06-03T10:09:15.795Z,91.60
2018-06-03T10:10:15.802Z,91.20
2018-06-03T10:11:15.768Z,90.53
2018-06-03T10:12:15.755Z,89.95
2018-06-03T10:13:15.744Z,91.02
2018-06-03T10:14:15.733Z,90.29
2018-06-03T10:15:15.719Z,89.90
2018-06-03T10:16:15.770Z,89.13
2018-06-03T10:17:15.696Z,88.36
2018-06-03T10:18:15.685Z,87.68
2018-06-03T10:19:15.672Z,88.45
2018-06-03T10:20:15.662Z,87.68
2018-06-03T10:21:15.652Z,87.73
2018-06-03T10:22:15.639Z,86.38
2018-06-03T10:23:15.628Z,85.41
2018-06-03T10:24:15.619Z,84.16
2018-06-03T10:25:15.606Z,84.06
2018-06-03T10:26:15.594Z,84.25
2018-06-03T10:27:15.583Z,84.06
2018-06-03T10:28:15.573Z,82.81
2018-06-03T10:29:15.563Z,84.16
2018-06-03T10:30:15.551Z,84.48
2018-06-03T10:31:15.539Z,84.20
2018-06-03T10:32:15.532Z,83.09
2018-06-03T10:33:15.517Z,84.74
2018-06-03T10:34:15.510Z,84.74
2018-06-03T10:35:15.499Z,86.42
2018-06-03T10:36:15.487Z,86.52
2018-06-03T10:37:15.476Z,84.68
2018-06-03T10:38:15.464Z,83.23
2018-06-03T10:39:15.454Z,84.10
2018-06-03T10:40:15.443Z,85.06
2018-06-03T10:41:15.433Z,83.23
2018-06-03T10:42:15.423Z,83.42
2018-06-03T10:43:15.412Z,80.72
2018-06-03T10:44:15.403Z,81.34
2018-06-03T10:45:15.392Z,81.34
2018-06-03T10:46:15.382Z,81.44
2018-06-03T10:47:15.372Z,81.24
2018-06-03T10:48:15.415Z,81.63
2018-06-03T10:49:15.352Z,81.05
2018-06-03T10:50:15.341Z,81.34
2018-06-03T10:51:15.331Z,79.80
2018-06-03T10:52:15.321Z,79.99
2018-06-03T10:53:15.312Z,80.66
2018-06-03T10:54:15.326Z,81.19
2018-06-03T10:55:15.296Z,81.29
2018-06-03T10:56:15.282Z,81.29
2018-06-03T10:57:15.275Z,81.57
2018-06-03T10:58:15.264Z,79.16
2018-06-03T10:59:15.258Z,78.38
2018-06-03T11:00:15.245Z,79.06
2018-06-03T11:01:15.236Z,80.32
2018-06-03T11:02:15.228Z,79.16
2018-06-03T11:03:15.219Z,78.67
2018-06-03T11:04:15.211Z,78.77
2018-06-03T11:05:15.202Z,81.29
2018-06-03T11:06:15.189Z,80.61
2018-06-03T11:07:15.182Z,81.19
2018-06-03T11:08:15.172Z,78.58
2018-06-03T11:09:15.164Z,76.68
2018-06-03T11:10:15.153Z,76.97
2018-06-03T11:11:15.146Z,78.91
2018-06-03T11:12:15.136Z,78.61
2018-06-03T11:13:15.127Z,78.81
2018-06-03T11:14:15.120Z,78.17
2018-06-03T11:15:15.111Z,77.11
2018-06-03T11:16:15.103Z,77.30
2018-06-03T11:17:15.093Z,77.30
2018-06-03T11:18:15.085Z,77.59
2018-06-03T11:19:15.075Z,76.87
2018-06-03T11:20:15.070Z,77.36
2018-06-03T11:21:15.057Z,77.26
2018-06-03T11:22:15.050Z,77.65
2018-06-03T11:23:15.039Z,79.20
2018-06-03T11:24:15.031Z,77.75
2018-06-03T11:25:15.024Z,77.26
2018-06-03T11:26:15.014Z,76.87
2018-06-03T11:27:15.006Z,75.43
2018-06-03T11:28:14.996Z,75.52
2018-06-03T11:29:14.988Z,76.49
2018-06-03T11:30:14.979Z,76.68
2018-06-03T11:31:14.969Z,76.64
2018-06-03T11:32:14.961Z,76.35
2018-06-03T11:33:14.953Z,76.74
2018-06-03T11:34:14.943Z,77.55
2018-06-03T11:35:14.953Z,77.55
2018-06-03T11:36:14.925Z,78.81
2018-06-03T11:37:14.917Z,78.94
2018-06-03T11:38:15.002Z,77.30
2018-06-03T11:39:14.899Z,76.62
2018-06-03T11:40:14.890Z,77.34
2018-06-03T11:41:14.880Z,72.98
2018-06-03T11:42:14.872Z,73.31
2018-06-03T11:43:14.867Z,74.47
2018-06-03T11:44:14.856Z,73.31
2018-06-03T11:45:15.057Z,72.73
2018-06-03T11:46:14.863Z,70.44
2018-06-03T11:47:14.828Z,72.09
2018-06-03T11:48:14.818Z,71.86
2018-06-03T11:49:14.983Z,73.15
2018-06-03T11:50:14.801Z,74.60
2018-06-03T11:51:14.795Z,71.60
2018-06-03T11:52:14.787Z,71.60
2018-06-03T11:53:14.778Z,72.28
2018-06-03T11:54:16.551Z,70.83
2018-06-03T11:55:15.155Z,72.67
2018-06-03T11:56:14.753Z,71.70
2018-06-03T11:57:14.745Z,73.25
2018-06-03T11:58:14.737Z,71.99
2018-06-03T11:59:14.813Z,72.67
2018-06-03T12:00:14.720Z,72.86
2018-06-03T12:01:14.713Z,72.28
2018-06-03T12:02:14.704Z,71.70
2018-06-03T12:03:14.695Z,70.54
2018-06-03T12:04:14.687Z,71.41
2018-06-03T12:05:14.682Z,72.02
2018-06-03T12:06:14.679Z,71.83
2018-06-03T12:07:14.690Z,71.34
2018-06-03T12:08:14.713Z,70.67
2018-06-03T12:09:14.655Z,69.15
2018-06-03T12:10:14.641Z,65.85
2018-06-03T12:11:14.635Z,65.66
2018-06-03T12:12:14.628Z,64.88
2018-06-03T12:13:14.618Z,67.02
2018-06-03T12:14:14.614Z,66.50
2018-06-03T12:15:14.603Z,67.18
2018-06-03T12:16:14.598Z,67.47
2018-06-03T12:17:14.589Z,66.89
2018-06-03T12:18:14.583Z,66.20
2018-06-03T12:19:14.572Z,68.44
2018-06-03T12:20:14.564Z,69.50
2018-06-03T12:21:14.566Z,67.82
2018-06-03T12:22:14.549Z,68.12
2018-06-03T12:23:14.542Z,71.12
2018-06-03T12:24:14.534Z,71.22
2018-06-03T12:25:14.527Z,69.18
2018-06-03T12:26:14.520Z,68.92
2018-06-03T12:27:14.513Z,69.02
2018-06-03T12:28:14.505Z,68.54
2018-06-03T12:29:14.498Z,68.18
2018-06-03T12:30:14.493Z,68.76
2018-06-03T12:31:14.616Z,68.24
2018-06-03T12:32:14.577Z,67.37
2018-06-03T12:33:14.468Z,67.85
2018-06-03T12:34:14.522Z,67.76
2018-06-03T12:35:14.455Z,66.89
2018-06-03T12:36:14.449Z,68.47
2018-06-03T12:37:14.439Z,67.85
2018-06-03T12:38:14.432Z,68.44
2018-06-03T12:39:14.430Z,68.76
2018-06-03T12:40:14.418Z,67.83
2018-06-03T12:41:14.411Z,68.54
2018-06-03T12:42:14.403Z,67.02
2018-06-03T12:43:14.403Z,66.34
2018-06-03T12:44:14.390Z,65.11
2018-06-03T12:45:14.384Z,65.04
2018-06-03T12:46:14.378Z,63.81
2018-06-03T12:47:14.372Z,63.75
2018-06-03T12:48:14.365Z,61.80
2018-06-03T12:49:14.361Z,60.46
2018-06-03T12:50:14.354Z,61.90
2018-06-03T12:51:14.350Z,60.82
2018-06-03T12:52:14.344Z,58.97